sensor_id;sensor_type;location;lat;lon;timestamp;P1;durP1;ratioP1;P2;durP2;ratioP2
27670;SDS011;15077;49.704;9.908;2023-03-01T00:00:15;11.82;;;6.60;;
27670;SDS011;15077;49.704;9.908;2023-03-01T00:02:41;15.80;;;9.98;;
27670;SDS011;15077;49.704;9.908;2023-03-01T00:05:07;15.20;;;9.48;;
27670;SDS011;15077;49.704;9.908;2023-03-01T00:07:33;15.05;;;9.07;;
27670;SDS011;15077;49.704;9.908;2023-03-01T00:09:59;18.83;;;11.57;;
27670;SDS011;15077;49.704;9.908;2023-03-01T00:12:24;16.65;;;9.35;;
27670;SDS011;15077;49.704;9.908;2023-03-01T00:14:50;13.00;;;9.00;;
27670;SDS011;15077;49.704;9.908;2023-03-01T00:17:16;14.43;;;8.73;;
27670;SDS011;15077;49.704;9.908;2023-03-01T00:19:42;13.43;;;8.63;;
27670;SDS011;15077;49.704;9.908;2023-03-01T00:22:07;12.60;;;7.50;;
27670;SDS011;15077;49.704;9.908;2023-03-01T00:24:33;9.82;;;5.68;;
27670;SDS011;15077;49.704;9.908;2023-03-01T00:26:59;7.78;;;5.28;;
27670;SDS011;15077;49.704;9.908;2023-03-01T00:29:25;10.75;;;6.80;;
27670;SDS011;15077;49.704;9.908;2023-03-01T00:31:51;10.48;;;6.35;;
27670;SDS011;15077;49.704;9.908;2023-03-01T00:34:17;10.68;;;5.78;;
27670;SDS011;15077;49.704;9.908;2023-03-01T00:36:43;9.43;;;5.95;;
27670;SDS011;15077;49.704;9.908;2023-03-01T00:39:12;9.18;;;5.63;;
27670;SDS011;15077;49.704;9.908;2023-03-01T00:41:40;8.27;;;5.00;;
27670;SDS011;15077;49.704;9.908;2023-03-01T00:44:06;8.80;;;5.30;;
27670;SDS011;15077;49.704;9.908;2023-03-01T00:46:32;10.25;;;5.43;;
27670;SDS011;15077;49.704;9.908;2023-03-01T00:48:58;8.25;;;6.20;;
27670;SDS011;15077;49.704;9.908;2023-03-01T00:51:27;7.95;;;6.10;;
27670;SDS011;15077;49.704;9.908;2023-03-01T00:53:54;8.38;;;5.95;;
27670;SDS011;15077;49.704;9.908;2023-03-01T00:56:24;7.95;;;4.90;;
27670;SDS011;15077;49.704;9.908;2023-03-01T00:59:00;9.63;;;4.85;;
27670;SDS011;15077;49.704;9.908;2023-03-01T01:01:27;9.00;;;6.55;;
27670;SDS011;15077;49.704;9.908;2023-03-01T01:03:57;12.82;;;7.75;;
27670;SDS011;15077;49.704;9.908;2023-03-01T01:06:31;11.75;;;6.72;;
27670;SDS011;15077;49.704;9.908;2023-03-01T01:09:11;7.93;;;5.85;;
27670;SDS011;15077;49.704;9.908;2023-03-01T01:11:50;8.10;;;4.85;;
27670;SDS011;15077;49.704;9.908;2023-03-01T01:14:17;7.80;;;5.38;;
27670;SDS011;15077;49.704;9.908;2023-03-01T01:16:45;8.18;;;5.28;;
27670;SDS011;15077;49.704;9.908;2023-03-01T01:19:12;7.65;;;4.85;;
27670;SDS011;15077;49.704;9.908;2023-03-01T01:21:38;8.27;;;5.15;;
27670;SDS011;15077;49.704;9.908;2023-03-01T01:24:06;8.82;;;5.70;;
27670;SDS011;15077;49.704;9.908;2023-03-01T01:26:32;9.25;;;6.05;;
27670;SDS011;15077;49.704;9.908;2023-03-01T01:28:59;10.25;;;5.55;;
27670;SDS011;15077;49.704;9.908;2023-03-01T01:31:28;10.68;;;5.88;;
27670;SDS011;15077;49.704;9.908;2023-03-01T01:33:56;9.40;;;5.63;;
27670;SDS011;15077;49.704;9.908;2023-03-01T01:36:25;11.52;;;6.80;;
27670;SDS011;15077;49.704;9.908;2023-03-01T01:38:54;9.73;;;5.72;;
27670;SDS011;15077;49.704;9.908;2023-03-01T01:41:23;8.60;;;5.10;;
27670;SDS011;15077;49.704;9.908;2023-03-01T01:47:04;8.88;;;5.28;;
27670;SDS011;15077;49.704;9.908;2023-03-01T01:49:39;8.82;;;5.80;;
27670;SDS011;15077;49.704;9.908;2023-03-01T01:52:18;9.15;;;6.15;;
27670;SDS011;15077;49.704;9.908;2023-03-01T01:57:40;8.68;;;5.25;;
27670;SDS011;15077;49.704;9.908;2023-03-01T02:00:16;9.52;;;5.32;;
27670;SDS011;15077;49.704;9.908;2023-03-01T02:02:48;10.43;;;6.35;;
27670;SDS011;15077;49.704;9.908;2023-03-01T02:07:55;9.85;;;5.50;;
27670;SDS011;15077;49.704;9.908;2023-03-01T02:10:24;11.02;;;6.43;;
27670;SDS011;15077;49.704;9.908;2023-03-01T02:12:55;12.80;;;6.97;;
27670;SDS011;15077;49.704;9.908;2023-03-01T02:15:23;9.95;;;6.65;;
27670;SDS011;15077;49.704;9.908;2023-03-01T02:17:51;10.57;;;5.97;;
27670;SDS011;15077;49.704;9.908;2023-03-01T02:22:54;10.80;;;6.13;;
27670;SDS011;15077;49.704;9.908;2023-03-01T02:28:45;11.93;;;6.97;;
27670;SDS011;15077;49.704;9.908;2023-03-01T02:31:17;10.98;;;6.63;;
27670;SDS011;15077;49.704;9.908;2023-03-01T02:34:04;9.38;;;5.38;;
27670;SDS011;15077;49.704;9.908;2023-03-01T02:36:38;11.50;;;5.60;;
27670;SDS011;15077;49.704;9.908;2023-03-01T02:39:15;9.00;;;5.50;;
27670;SDS011;15077;49.704;9.908;2023-03-01T02:41:49;8.93;;;6.13;;
27670;SDS011;15077;49.704;9.908;2023-03-01T02:44:20;8.70;;;5.28;;
27670;SDS011;15077;49.704;9.908;2023-03-01T02:46:52;8.65;;;5.28;;
27670;SDS011;15077;49.704;9.908;2023-03-01T02:49:23;9.15;;;5.65;;
27670;SDS011;15077;49.704;9.908;2023-03-01T02:57:33;9.20;;;5.93;;
27670;SDS011;15077;49.704;9.908;2023-03-01T03:00:05;8.52;;;5.20;;
27670;SDS011;15077;49.704;9.908;2023-03-01T03:02:49;6.35;;;4.85;;
27670;SDS011;15077;49.704;9.908;2023-03-01T03:05:28;9.45;;;5.40;;
27670;SDS011;15077;49.704;9.908;2023-03-01T03:07:56;10.15;;;5.57;;
27670;SDS011;15077;49.704;9.908;2023-03-01T03:10:26;6.40;;;5.03;;
27670;SDS011;15077;49.704;9.908;2023-03-01T03:13:05;8.98;;;5.22;;
27670;SDS011;15077;49.704;9.908;2023-03-01T03:15:42;7.82;;;4.85;;
27670;SDS011;15077;49.704;9.908;2023-03-01T03:18:12;14.27;;;8.25;;
27670;SDS011;15077;49.704;9.908;2023-03-01T03:20:42;14.88;;;7.80;;
27670;SDS011;15077;49.704;9.908;2023-03-01T03:23:12;15.98;;;8.38;;
27670;SDS011;15077;49.704;9.908;2023-03-01T03:25:40;21.80;;;11.05;;
27670;SDS011;15077;49.704;9.908;2023-03-01T03:28:07;18.98;;;10.38;;
27670;SDS011;15077;49.704;9.908;2023-03-01T03:30:37;21.15;;;9.63;;
27670;SDS011;15077;49.704;9.908;2023-03-01T03:33:06;20.48;;;10.23;;
27670;SDS011;15077;49.704;9.908;2023-03-01T03:35:40;17.85;;;10.05;;
27670;SDS011;15077;49.704;9.908;2023-03-01T03:38:11;13.05;;;7.53;;
27670;SDS011;15077;49.704;9.908;2023-03-01T03:40:52;12.80;;;7.00;;
27670;SDS011;15077;49.704;9.908;2023-03-01T03:43:33;11.65;;;6.75;;
27670;SDS011;15077;49.704;9.908;2023-03-01T03:46:04;12.57;;;6.80;;
27670;SDS011;15077;49.704;9.908;2023-03-01T03:48:34;10.35;;;6.30;;
27670;SDS011;15077;49.704;9.908;2023-03-01T03:51:10;11.63;;;6.70;;
27670;SDS011;15077;49.704;9.908;2023-03-01T03:53:39;11.10;;;6.47;;
27670;SDS011;15077;49.704;9.908;2023-03-01T03:56:05;11.05;;;6.45;;
27670;SDS011;15077;49.704;9.908;2023-03-01T03:58:32;8.63;;;5.60;;
27670;SDS011;15077;49.704;9.908;2023-03-01T04:00:58;11.50;;;5.47;;
27670;SDS011;15077;49.704;9.908;2023-03-01T04:03:26;8.85;;;5.60;;
27670;SDS011;15077;49.704;9.908;2023-03-01T04:05:53;11.55;;;5.45;;
27670;SDS011;15077;49.704;9.908;2023-03-01T04:08:22;9.75;;;6.88;;
27670;SDS011;15077;49.704;9.908;2023-03-01T04:10:49;9.40;;;5.85;;
27670;SDS011;15077;49.704;9.908;2023-03-01T04:13:23;9.90;;;5.55;;
27670;SDS011;15077;49.704;9.908;2023-03-01T04:15:51;9.60;;;6.57;;
27670;SDS011;15077;49.704;9.908;2023-03-01T04:18:19;11.68;;;6.55;;
27670;SDS011;15077;49.704;9.908;2023-03-01T04:20:47;11.52;;;7.00;;
27670;SDS011;15077;49.704;9.908;2023-03-01T04:23:17;10.77;;;5.65;;
27670;SDS011;15077;49.704;9.908;2023-03-01T04:25:55;8.35;;;5.63;;
27670;SDS011;15077;49.704;9.908;2023-03-01T04:28:32;7.47;;;4.97;;
27670;SDS011;15077;49.704;9.908;2023-03-01T04:31:06;12.45;;;5.75;;
27670;SDS011;15077;49.704;9.908;2023-03-01T04:33:39;9.57;;;5.38;;
27670;SDS011;15077;49.704;9.908;2023-03-01T04:36:07;8.20;;;5.03;;
27670;SDS011;15077;49.704;9.908;2023-03-01T04:38:35;9.98;;;6.65;;
27670;SDS011;15077;49.704;9.908;2023-03-01T04:41:05;8.00;;;6.00;;
27670;SDS011;15077;49.704;9.908;2023-03-01T04:43:34;9.00;;;5.85;;
27670;SDS011;15077;49.704;9.908;2023-03-01T04:46:02;8.93;;;5.97;;
27670;SDS011;15077;49.704;9.908;2023-03-01T04:50:59;9.43;;;5.47;;
27670;SDS011;15077;49.704;9.908;2023-03-01T04:53:27;11.43;;;4.93;;
27670;SDS011;15077;49.704;9.908;2023-03-01T04:55:55;9.88;;;5.93;;
27670;SDS011;15077;49.704;9.908;2023-03-01T04:58:22;7.50;;;4.28;;
27670;SDS011;15077;49.704;9.908;2023-03-01T05:00:49;9.90;;;6.07;;
27670;SDS011;15077;49.704;9.908;2023-03-01T05:03:16;6.88;;;4.78;;
27670;SDS011;15077;49.704;9.908;2023-03-01T05:05:42;8.55;;;5.13;;
27670;SDS011;15077;49.704;9.908;2023-03-01T05:08:11;9.70;;;5.20;;
27670;SDS011;15077;49.704;9.908;2023-03-01T05:10:42;10.05;;;6.00;;
27670;SDS011;15077;49.704;9.908;2023-03-01T05:13:26;11.07;;;6.45;;
27670;SDS011;15077;49.704;9.908;2023-03-01T05:15:54;14.80;;;9.13;;
27670;SDS011;15077;49.704;9.908;2023-03-01T05:18:23;13.93;;;8.27;;
27670;SDS011;15077;49.704;9.908;2023-03-01T05:20:51;12.23;;;7.50;;
27670;SDS011;15077;49.704;9.908;2023-03-01T05:23:21;9.20;;;5.68;;
27670;SDS011;15077;49.704;9.908;2023-03-01T05:25:48;15.05;;;7.93;;
27670;SDS011;15077;49.704;9.908;2023-03-01T05:28:14;13.57;;;8.15;;
27670;SDS011;15077;49.704;9.908;2023-03-01T05:30:40;11.32;;;7.82;;
27670;SDS011;15077;49.704;9.908;2023-03-01T05:33:07;11.18;;;6.95;;
27670;SDS011;15077;49.704;9.908;2023-03-01T05:35:43;16.98;;;8.15;;
27670;SDS011;15077;49.704;9.908;2023-03-01T05:38:10;13.35;;;8.15;;
27670;SDS011;15077;49.704;9.908;2023-03-01T05:40:44;12.60;;;7.20;;
27670;SDS011;15077;49.704;9.908;2023-03-01T05:43:13;12.57;;;6.97;;
27670;SDS011;15077;49.704;9.908;2023-03-01T05:45:41;14.05;;;8.52;;
27670;SDS011;15077;49.704;9.908;2023-03-01T05:48:08;12.85;;;8.48;;
27670;SDS011;15077;49.704;9.908;2023-03-01T05:50:37;10.80;;;6.32;;
27670;SDS011;15077;49.704;9.908;2023-03-01T05:53:07;13.00;;;8.32;;
27670;SDS011;15077;49.704;9.908;2023-03-01T05:55:38;13.10;;;7.15;;
27670;SDS011;15077;49.704;9.908;2023-03-01T05:58:06;16.08;;;9.63;;
27670;SDS011;15077;49.704;9.908;2023-03-01T06:00:35;11.82;;;6.88;;
27670;SDS011;15077;49.704;9.908;2023-03-01T06:03:01;12.35;;;6.70;;
27670;SDS011;15077;49.704;9.908;2023-03-01T06:05:28;12.07;;;6.70;;
27670;SDS011;15077;49.704;9.908;2023-03-01T06:07:54;10.20;;;6.50;;
27670;SDS011;15077;49.704;9.908;2023-03-01T06:10:20;12.48;;;6.68;;
27670;SDS011;15077;49.704;9.908;2023-03-01T06:12:47;11.55;;;6.43;;
27670;SDS011;15077;49.704;9.908;2023-03-01T06:15:14;12.48;;;7.70;;
27670;SDS011;15077;49.704;9.908;2023-03-01T06:17:42;10.05;;;6.43;;
27670;SDS011;15077;49.704;9.908;2023-03-01T06:20:14;9.70;;;5.82;;
27670;SDS011;15077;49.704;9.908;2023-03-01T06:22:46;12.93;;;6.88;;
27670;SDS011;15077;49.704;9.908;2023-03-01T06:25:15;10.13;;;6.10;;
27670;SDS011;15077;49.704;9.908;2023-03-01T06:27:44;9.57;;;5.07;;
27670;SDS011;15077;49.704;9.908;2023-03-01T06:30:12;10.50;;;6.45;;
27670;SDS011;15077;49.704;9.908;2023-03-01T06:32:40;10.73;;;6.82;;
27670;SDS011;15077;49.704;9.908;2023-03-01T06:35:13;12.95;;;7.15;;
27670;SDS011;15077;49.704;9.908;2023-03-01T06:37:42;11.70;;;7.15;;
27670;SDS011;15077;49.704;9.908;2023-03-01T06:40:08;10.23;;;6.03;;
27670;SDS011;15077;49.704;9.908;2023-03-01T06:42:36;17.50;;;9.25;;
27670;SDS011;15077;49.704;9.908;2023-03-01T06:45:04;18.58;;;10.75;;
27670;SDS011;15077;49.704;9.908;2023-03-01T06:47:32;16.95;;;8.73;;
27670;SDS011;15077;49.704;9.908;2023-03-01T06:50:01;16.38;;;9.82;;
27670;SDS011;15077;49.704;9.908;2023-03-01T06:52:28;23.38;;;12.55;;
27670;SDS011;15077;49.704;9.908;2023-03-01T06:54:55;20.85;;;12.18;;
27670;SDS011;15077;49.704;9.908;2023-03-01T06:57:20;23.25;;;13.02;;
27670;SDS011;15077;49.704;9.908;2023-03-01T06:59:47;28.42;;;15.65;;
27670;SDS011;15077;49.704;9.908;2023-03-01T07:02:13;25.58;;;15.23;;
27670;SDS011;15077;49.704;9.908;2023-03-01T07:04:40;28.20;;;16.23;;
27670;SDS011;15077;49.704;9.908;2023-03-01T07:07:07;29.83;;;16.95;;
27670;SDS011;15077;49.704;9.908;2023-03-01T07:09:33;29.02;;;16.30;;
27670;SDS011;15077;49.704;9.908;2023-03-01T07:11:59;28.13;;;15.00;;
27670;SDS011;15077;49.704;9.908;2023-03-01T07:14:25;24.17;;;13.52;;
27670;SDS011;15077;49.704;9.908;2023-03-01T07:16:51;22.88;;;14.07;;
27670;SDS011;15077;49.704;9.908;2023-03-01T07:19:20;23.83;;;13.63;;
27670;SDS011;15077;49.704;9.908;2023-03-01T07:21:47;23.13;;;13.80;;
27670;SDS011;15077;49.704;9.908;2023-03-01T07:24:13;28.17;;;14.63;;
27670;SDS011;15077;49.704;9.908;2023-03-01T07:26:39;31.05;;;16.88;;
27670;SDS011;15077;49.704;9.908;2023-03-01T07:29:05;26.33;;;15.55;;
27670;SDS011;15077;49.704;9.908;2023-03-01T07:31:34;28.23;;;17.00;;
27670;SDS011;15077;49.704;9.908;2023-03-01T07:34:00;28.50;;;16.17;;
27670;SDS011;15077;49.704;9.908;2023-03-01T07:36:26;25.38;;;14.43;;
27670;SDS011;15077;49.704;9.908;2023-03-01T07:38:52;24.95;;;14.23;;
27670;SDS011;15077;49.704;9.908;2023-03-01T07:41:17;24.50;;;14.10;;
27670;SDS011;15077;49.704;9.908;2023-03-01T07:43:43;32.38;;;17.38;;
27670;SDS011;15077;49.704;9.908;2023-03-01T07:46:09;26.73;;;15.45;;
27670;SDS011;15077;49.704;9.908;2023-03-01T07:48:35;27.92;;;16.77;;
27670;SDS011;15077;49.704;9.908;2023-03-01T07:51:01;31.38;;;17.50;;
27670;SDS011;15077;49.704;9.908;2023-03-01T07:53:29;37.17;;;18.08;;
27670;SDS011;15077;49.704;9.908;2023-03-01T07:56:07;34.85;;;18.77;;
27670;SDS011;15077;49.704;9.908;2023-03-01T07:58:36;33.35;;;19.30;;
27670;SDS011;15077;49.704;9.908;2023-03-01T08:01:05;29.50;;;16.63;;
27670;SDS011;15077;49.704;9.908;2023-03-01T08:03:34;28.38;;;16.48;;
27670;SDS011;15077;49.704;9.908;2023-03-01T08:06:04;29.73;;;17.52;;
27670;SDS011;15077;49.704;9.908;2023-03-01T08:08:34;30.15;;;17.92;;
27670;SDS011;15077;49.704;9.908;2023-03-01T08:11:01;29.20;;;17.70;;
27670;SDS011;15077;49.704;9.908;2023-03-01T08:13:29;29.50;;;17.20;;
27670;SDS011;15077;49.704;9.908;2023-03-01T08:16:02;27.85;;;16.50;;
27670;SDS011;15077;49.704;9.908;2023-03-01T08:18:30;34.03;;;19.48;;
27670;SDS011;15077;49.704;9.908;2023-03-01T08:21:04;30.35;;;18.63;;
27670;SDS011;15077;49.704;9.908;2023-03-01T08:23:32;30.42;;;17.95;;
27670;SDS011;15077;49.704;9.908;2023-03-01T08:26:04;32.30;;;18.27;;
27670;SDS011;15077;49.704;9.908;2023-03-01T08:28:31;32.20;;;18.65;;
27670;SDS011;15077;49.704;9.908;2023-03-01T08:30:57;30.98;;;17.25;;
27670;SDS011;15077;49.704;9.908;2023-03-01T08:33:23;31.23;;;18.88;;
27670;SDS011;15077;49.704;9.908;2023-03-01T08:35:49;30.38;;;18.15;;
27670;SDS011;15077;49.704;9.908;2023-03-01T08:38:15;31.98;;;18.80;;
27670;SDS011;15077;49.704;9.908;2023-03-01T08:40:40;31.13;;;18.10;;
27670;SDS011;15077;49.704;9.908;2023-03-01T08:43:06;31.45;;;18.85;;
27670;SDS011;15077;49.704;9.908;2023-03-01T08:45:32;32.20;;;20.13;;
27670;SDS011;15077;49.704;9.908;2023-03-01T08:47:57;29.77;;;19.20;;
27670;SDS011;15077;49.704;9.908;2023-03-01T08:50:23;28.08;;;18.70;;
27670;SDS011;15077;49.704;9.908;2023-03-01T08:52:49;32.10;;;19.67;;
27670;SDS011;15077;49.704;9.908;2023-03-01T08:55:16;32.53;;;19.52;;
27670;SDS011;15077;49.704;9.908;2023-03-01T08:57:42;32.25;;;19.50;;
27670;SDS011;15077;49.704;9.908;2023-03-01T09:00:09;32.78;;;20.45;;
27670;SDS011;15077;49.704;9.908;2023-03-01T09:02:39;33.20;;;19.13;;
27670;SDS011;15077;49.704;9.908;2023-03-01T09:05:05;32.22;;;19.33;;
27670;SDS011;15077;49.704;9.908;2023-03-01T09:07:31;35.30;;;20.17;;
27670;SDS011;15077;49.704;9.908;2023-03-01T09:09:57;33.50;;;19.90;;
27670;SDS011;15077;49.704;9.908;2023-03-01T09:12:23;30.67;;;19.20;;
27670;SDS011;15077;49.704;9.908;2023-03-01T09:14:50;29.75;;;19.00;;
27670;SDS011;15077;49.704;9.908;2023-03-01T09:17:15;29.15;;;18.90;;
27670;SDS011;15077;49.704;9.908;2023-03-01T09:19:41;31.23;;;18.92;;
27670;SDS011;15077;49.704;9.908;2023-03-01T09:22:07;35.05;;;20.65;;
27670;SDS011;15077;49.704;9.908;2023-03-01T09:24:33;30.52;;;19.45;;
27670;SDS011;15077;49.704;9.908;2023-03-01T09:26:58;32.92;;;18.58;;
27670;SDS011;15077;49.704;9.908;2023-03-01T09:29:24;34.40;;;19.45;;
27670;SDS011;15077;49.704;9.908;2023-03-01T09:31:50;31.85;;;18.38;;
27670;SDS011;15077;49.704;9.908;2023-03-01T09:34:20;32.42;;;19.45;;
27670;SDS011;15077;49.704;9.908;2023-03-01T09:36:51;29.00;;;18.27;;
27670;SDS011;15077;49.704;9.908;2023-03-01T09:39:17;31.67;;;20.15;;
27670;SDS011;15077;49.704;9.908;2023-03-01T09:47:19;29.85;;;18.92;;
27670;SDS011;15077;49.704;9.908;2023-03-01T09:52:44;34.85;;;21.02;;
27670;SDS011;15077;49.704;9.908;2023-03-01T10:01:40;28.35;;;17.35;;
27670;SDS011;15077;49.704;9.908;2023-03-01T10:10:28;28.50;;;17.92;;
27670;SDS011;15077;49.704;9.908;2023-03-01T10:13:13;33.35;;;20.52;;
27670;SDS011;15077;49.704;9.908;2023-03-01T10:15:44;32.45;;;20.23;;
27670;SDS011;15077;49.704;9.908;2023-03-01T10:18:20;29.25;;;19.00;;
27670;SDS011;15077;49.704;9.908;2023-03-01T10:23:17;31.65;;;18.90;;
27670;SDS011;15077;49.704;9.908;2023-03-01T10:31:20;34.03;;;20.10;;
27670;SDS011;15077;49.704;9.908;2023-03-01T10:34:17;25.13;;;17.48;;
27670;SDS011;15077;49.704;9.908;2023-03-01T10:36:49;29.02;;;19.27;;
27670;SDS011;15077;49.704;9.908;2023-03-01T10:39:21;25.83;;;17.15;;
27670;SDS011;15077;49.704;9.908;2023-03-01T10:49:56;27.15;;;18.52;;
27670;SDS011;15077;49.704;9.908;2023-03-01T10:55:23;27.08;;;17.60;;
27670;SDS011;15077;49.704;9.908;2023-03-01T11:00:49;29.65;;;19.40;;
27670;SDS011;15077;49.704;9.908;2023-03-01T11:03:19;26.98;;;18.15;;
27670;SDS011;15077;49.704;9.908;2023-03-01T11:06:03;25.85;;;17.13;;
27670;SDS011;15077;49.704;9.908;2023-03-01T11:08:36;31.23;;;19.77;;
27670;SDS011;15077;49.704;9.908;2023-03-01T11:11:22;24.77;;;16.55;;
27670;SDS011;15077;49.704;9.908;2023-03-01T11:13:57;28.27;;;18.60;;
27670;SDS011;15077;49.704;9.908;2023-03-01T11:16:38;25.92;;;17.00;;
27670;SDS011;15077;49.704;9.908;2023-03-01T11:21:35;28.10;;;18.77;;
27670;SDS011;15077;49.704;9.908;2023-03-01T11:24:06;23.90;;;16.80;;
27670;SDS011;15077;49.704;9.908;2023-03-01T11:26:40;26.67;;;17.83;;
27670;SDS011;15077;49.704;9.908;2023-03-01T11:29:17;25.33;;;15.25;;
27670;SDS011;15077;49.704;9.908;2023-03-01T11:31:56;29.13;;;19.27;;
27670;SDS011;15077;49.704;9.908;2023-03-01T11:34:47;26.55;;;16.95;;
27670;SDS011;15077;49.704;9.908;2023-03-01T11:37:32;26.73;;;17.58;;
27670;SDS011;15077;49.704;9.908;2023-03-01T11:40:24;29.85;;;18.45;;
27670;SDS011;15077;49.704;9.908;2023-03-01T11:43:09;30.67;;;19.45;;
27670;SDS011;15077;49.704;9.908;2023-03-01T11:55:25;25.83;;;17.00;;
27670;SDS011;15077;49.704;9.908;2023-03-01T12:15:17;22.98;;;16.85;;
27670;SDS011;15077;49.704;9.908;2023-03-01T12:17:56;25.25;;;16.15;;
27670;SDS011;15077;49.704;9.908;2023-03-01T12:23:57;26.15;;;16.50;;
27670;SDS011;15077;49.704;9.908;2023-03-01T12:38:44;23.98;;;16.40;;
27670;SDS011;15077;49.704;9.908;2023-03-01T12:48:00;27.55;;;17.98;;
27670;SDS011;15077;49.704;9.908;2023-03-01T12:50:47;23.92;;;17.65;;
27670;SDS011;15077;49.704;9.908;2023-03-01T12:53:27;25.20;;;17.85;;
27670;SDS011;15077;49.704;9.908;2023-03-01T12:56:10;27.38;;;15.93;;
27670;SDS011;15077;49.704;9.908;2023-03-01T12:58:46;28.33;;;18.48;;
27670;SDS011;15077;49.704;9.908;2023-03-01T13:01:49;25.92;;;17.98;;
27670;SDS011;15077;49.704;9.908;2023-03-01T13:07:41;24.17;;;16.75;;
27670;SDS011;15077;49.704;9.908;2023-03-01T13:10:29;23.77;;;14.82;;
27670;SDS011;15077;49.704;9.908;2023-03-01T13:15:38;25.52;;;17.02;;
27670;SDS011;15077;49.704;9.908;2023-03-01T13:20:47;25.27;;;17.92;;
27670;SDS011;15077;49.704;9.908;2023-03-01T13:26:29;25.33;;;16.42;;
27670;SDS011;15077;49.704;9.908;2023-03-01T13:33:50;25.98;;;17.58;;
27670;SDS011;15077;49.704;9.908;2023-03-01T13:47:37;22.88;;;16.25;;
27670;SDS011;15077;49.704;9.908;2023-03-01T13:49:42;26.88;;;16.88;;
27670;SDS011;15077;49.704;9.908;2023-03-01T13:57:59;23.33;;;16.48;;
27670;SDS011;15077;49.704;9.908;2023-03-01T14:00:36;25.85;;;16.63;;
27670;SDS011;15077;49.704;9.908;2023-03-01T14:03:18;27.83;;;18.25;;
27670;SDS011;15077;49.704;9.908;2023-03-01T14:05:58;25.55;;;17.15;;
27670;SDS011;15077;49.704;9.908;2023-03-01T14:08:44;27.98;;;18.15;;
27670;SDS011;15077;49.704;9.908;2023-03-01T14:22:36;26.90;;;17.75;;
27670;SDS011;15077;49.704;9.908;2023-03-01T14:25:16;25.48;;;16.52;;
27670;SDS011;15077;49.704;9.908;2023-03-01T14:27:57;25.48;;;16.58;;
27670;SDS011;15077;49.704;9.908;2023-03-01T14:30:50;26.95;;;17.95;;
27670;SDS011;15077;49.704;9.908;2023-03-01T14:33:26;24.58;;;16.35;;
27670;SDS011;15077;49.704;9.908;2023-03-01T14:35:55;28.63;;;15.95;;
27670;SDS011;15077;49.704;9.908;2023-03-01T14:38:34;27.98;;;15.75;;
27670;SDS011;15077;49.704;9.908;2023-03-01T14:41:03;24.70;;;16.20;;
27670;SDS011;15077;49.704;9.908;2023-03-01T14:43:36;25.23;;;16.30;;
27670;SDS011;15077;49.704;9.908;2023-03-01T14:46:06;24.85;;;16.05;;
27670;SDS011;15077;49.704;9.908;2023-03-01T14:48:43;22.55;;;15.73;;
27670;SDS011;15077;49.704;9.908;2023-03-01T14:51:09;25.08;;;16.52;;
27670;SDS011;15077;49.704;9.908;2023-03-01T14:53:37;25.30;;;15.63;;
27670;SDS011;15077;49.704;9.908;2023-03-01T14:56:03;23.73;;;14.98;;
27670;SDS011;15077;49.704;9.908;2023-03-01T14:58:31;24.30;;;15.82;;
27670;SDS011;15077;49.704;9.908;2023-03-01T15:00:59;24.27;;;16.23;;
27670;SDS011;15077;49.704;9.908;2023-03-01T15:03:35;24.58;;;15.98;;
27670;SDS011;15077;49.704;9.908;2023-03-01T15:06:08;28.23;;;15.65;;
27670;SDS011;15077;49.704;9.908;2023-03-01T15:08:35;19.70;;;14.77;;
27670;SDS011;15077;49.704;9.908;2023-03-01T15:13:38;22.97;;;15.53;;
27670;SDS011;15077;49.704;9.908;2023-03-01T15:16:09;22.65;;;15.65;;
27670;SDS011;15077;49.704;9.908;2023-03-01T15:18:54;21.73;;;14.57;;
27670;SDS011;15077;49.704;9.908;2023-03-01T15:21:36;22.63;;;16.00;;
27670;SDS011;15077;49.704;9.908;2023-03-01T15:24:08;22.73;;;15.98;;
27670;SDS011;15077;49.704;9.908;2023-03-01T15:27:00;21.23;;;15.20;;
27670;SDS011;15077;49.704;9.908;2023-03-01T15:29:31;21.80;;;14.38;;
27670;SDS011;15077;49.704;9.908;2023-03-01T15:32:06;21.60;;;14.65;;
27670;SDS011;15077;49.704;9.908;2023-03-01T15:34:57;24.20;;;15.55;;
27670;SDS011;15077;49.704;9.908;2023-03-01T15:40:19;21.25;;;14.57;;
27670;SDS011;15077;49.704;9.908;2023-03-01T15:43:00;20.48;;;14.00;;
27670;SDS011;15077;49.704;9.908;2023-03-01T15:45:30;24.58;;;15.43;;
27670;SDS011;15077;49.704;9.908;2023-03-01T15:48:03;22.13;;;14.27;;
27670;SDS011;15077;49.704;9.908;2023-03-01T15:50:40;25.90;;;17.00;;
27670;SDS011;15077;49.704;9.908;2023-03-01T15:53:11;20.08;;;13.65;;
27670;SDS011;15077;49.704;9.908;2023-03-01T15:55:40;20.15;;;13.88;;
27670;SDS011;15077;49.704;9.908;2023-03-01T15:58:10;22.38;;;14.45;;
27670;SDS011;15077;49.704;9.908;2023-03-01T16:00:46;21.48;;;13.10;;
27670;SDS011;15077;49.704;9.908;2023-03-01T16:03:17;18.05;;;13.30;;
27670;SDS011;15077;49.704;9.908;2023-03-01T16:05:46;21.35;;;14.13;;
27670;SDS011;15077;49.704;9.908;2023-03-01T16:08:14;19.50;;;14.27;;
27670;SDS011;15077;49.704;9.908;2023-03-01T16:10:41;19.58;;;13.20;;
27670;SDS011;15077;49.704;9.908;2023-03-01T16:13:11;17.70;;;12.90;;
27670;SDS011;15077;49.704;9.908;2023-03-01T16:15:37;21.38;;;13.90;;
27670;SDS011;15077;49.704;9.908;2023-03-01T16:18:04;20.20;;;13.07;;
27670;SDS011;15077;49.704;9.908;2023-03-01T16:20:32;18.83;;;12.95;;
27670;SDS011;15077;49.704;9.908;2023-03-01T16:23:00;18.52;;;12.25;;
27670;SDS011;15077;49.704;9.908;2023-03-01T16:25:29;20.95;;;13.55;;
27670;SDS011;15077;49.704;9.908;2023-03-01T16:27:57;23.15;;;13.70;;
27670;SDS011;15077;49.704;9.908;2023-03-01T16:30:26;19.88;;;13.43;;
27670;SDS011;15077;49.704;9.908;2023-03-01T16:32:52;19.73;;;12.90;;
27670;SDS011;15077;49.704;9.908;2023-03-01T16:35:19;22.42;;;14.85;;
27670;SDS011;15077;49.704;9.908;2023-03-01T16:37:47;21.98;;;14.35;;
27670;SDS011;15077;49.704;9.908;2023-03-01T16:42:50;21.77;;;14.07;;
27670;SDS011;15077;49.704;9.908;2023-03-01T16:45:16;20.60;;;14.27;;
27670;SDS011;15077;49.704;9.908;2023-03-01T16:47:43;23.52;;;13.95;;
27670;SDS011;15077;49.704;9.908;2023-03-01T16:50:09;21.08;;;13.10;;
27670;SDS011;15077;49.704;9.908;2023-03-01T16:52:36;21.15;;;12.98;;
27670;SDS011;15077;49.704;9.908;2023-03-01T16:55:03;17.58;;;12.57;;
27670;SDS011;15077;49.704;9.908;2023-03-01T16:57:33;17.45;;;12.10;;
27670;SDS011;15077;49.704;9.908;2023-03-01T16:59:59;21.55;;;13.75;;
27670;SDS011;15077;49.704;9.908;2023-03-01T17:02:25;23.35;;;14.23;;
27670;SDS011;15077;49.704;9.908;2023-03-01T17:04:52;22.77;;;14.43;;
27670;SDS011;15077;49.704;9.908;2023-03-01T17:07:19;21.65;;;15.20;;
27670;SDS011;15077;49.704;9.908;2023-03-01T17:09:46;20.60;;;13.65;;
27670;SDS011;15077;49.704;9.908;2023-03-01T17:12:12;22.08;;;14.40;;
27670;SDS011;15077;49.704;9.908;2023-03-01T17:14:39;20.98;;;13.35;;
27670;SDS011;15077;49.704;9.908;2023-03-01T17:17:06;22.02;;;14.95;;
27670;SDS011;15077;49.704;9.908;2023-03-01T17:19:36;23.02;;;15.52;;
27670;SDS011;15077;49.704;9.908;2023-03-01T17:22:08;23.17;;;14.35;;
27670;SDS011;15077;49.704;9.908;2023-03-01T17:24:39;24.65;;;16.40;;
27670;SDS011;15077;49.704;9.908;2023-03-01T17:27:06;23.45;;;14.40;;
27670;SDS011;15077;49.704;9.908;2023-03-01T17:29:32;24.02;;;15.35;;
27670;SDS011;15077;49.704;9.908;2023-03-01T17:31:59;25.48;;;16.40;;
27670;SDS011;15077;49.704;9.908;2023-03-01T17:34:25;28.80;;;16.92;;
27670;SDS011;15077;49.704;9.908;2023-03-01T17:36:51;26.23;;;16.77;;